createdAt,value
2023-04-20T00:00:51.956Z,85.88
2023-04-20T00:01:51.968Z,86.71
2023-04-20T00:02:52.655Z,85.36
2023-04-20T00:03:52.921Z,85.47
2023-04-20T00:04:51.953Z,84.88
2023-04-20T00:05:51.919Z,85.36
2023-04-20T00:06:51.906Z,84.22
2023-04-20T00:07:51.888Z,85.40
2023-04-20T00:08:51.892Z,85.19
2023-04-20T00:09:51.893Z,84.37
2023-04-20T00:10:51.872Z,85.40
2023-04-20T00:11:51.870Z,85.92
2023-04-20T00:12:51.858Z,86.44
2023-04-20T00:13:52.081Z,85.61
2023-04-20T00:14:51.840Z,86.19
2023-04-20T00:15:51.826Z,86.40
2023-04-20T00:16:51.893Z,86.65
2023-04-20T00:17:51.841Z,86.71
2023-04-20T00:18:51.819Z,85.16
2023-04-20T00:19:51.847Z,85.30
2023-04-20T00:20:51.794Z,85.40
2023-04-20T00:22:51.768Z,86.33
2023-04-20T00:23:51.765Z,86.85
2023-04-20T00:24:51.758Z,86.44
2023-04-20T00:25:51.749Z,86.85
2023-04-20T00:26:51.745Z,86.91
2023-04-20T00:27:52.840Z,87.12
2023-04-20T00:28:52.814Z,86.85
2023-04-20T00:29:52.819Z,86.96
2023-04-20T00:30:52.828Z,87.33
2023-04-20T00:31:52.792Z,86.96
2023-04-20T00:32:52.861Z,86.91
2023-04-20T00:33:52.769Z,86.85
2023-04-20T00:34:53.784Z,86.81
2023-04-20T00:35:52.757Z,86.75
2023-04-20T00:36:52.756Z,87.06
2023-04-20T00:37:52.743Z,87.23
2023-04-20T00:38:52.739Z,87.27
2023-04-20T00:39:52.736Z,86.85
2023-04-20T00:40:52.729Z,86.91
2023-04-20T00:41:52.719Z,86.91
2023-04-20T00:42:52.715Z,86.96
2023-04-20T00:43:52.717Z,87.64
2023-04-20T00:44:52.694Z,87.47
2023-04-20T00:45:52.871Z,87.02
2023-04-20T00:46:52.678Z,87.64
2023-04-20T00:47:52.719Z,86.81
2023-04-20T00:48:52.662Z,87.23
2023-04-20T00:49:52.668Z,87.12
2023-04-20T00:50:52.645Z,86.71
2023-04-20T00:51:52.637Z,87.23
2023-04-20T00:52:52.627Z,87.23
2023-04-20T00:53:52.623Z,87.02
2023-04-20T00:54:52.623Z,86.81
2023-04-20T00:55:52.626Z,86.71
2023-04-20T00:56:52.613Z,87.12
2023-04-20T00:57:52.579Z,87.33
2023-04-20T00:58:52.581Z,86.81
2023-04-20T00:59:52.574Z,87.12
2023-04-20T01:00:52.561Z,87.43
2023-04-20T01:01:52.656Z,87.12
2023-04-20T01:02:52.649Z,87.43
2023-04-20T01:03:52.709Z,87.43
2023-04-20T01:04:52.526Z,87.39
2023-04-20T01:05:52.528Z,87.39
2023-04-20T01:06:52.513Z,87.12
2023-04-20T01:07:52.503Z,87.02
2023-04-20T01:08:52.500Z,87.02
2023-04-20T01:09:52.489Z,86.81
2023-04-20T01:10:52.474Z,86.60
2023-04-20T01:11:52.464Z,87.23
2023-04-20T01:12:52.463Z,87.06
2023-04-20T01:13:52.464Z,87.12
2023-04-20T01:14:52.449Z,87.54
2023-04-20T01:15:52.464Z,86.91
2023-04-20T01:16:52.431Z,87.64
2023-04-20T01:17:53.161Z,87.33
2023-04-20T01:18:52.426Z,86.91
2023-04-20T01:19:52.410Z,87.06
2023-04-20T01:20:52.406Z,87.68
2023-04-20T01:21:52.396Z,87.27
2023-04-20T01:22:52.385Z,87.37
2023-04-20T01:23:52.375Z,87.37
2023-04-20T01:24:52.365Z,86.85
2023-04-20T01:25:52.394Z,86.85
2023-04-20T01:26:52.359Z,86.54
2023-04-20T01:27:52.356Z,86.89
2023-04-20T01:28:52.341Z,86.54
2023-04-20T01:29:52.331Z,87.27
2023-04-20T01:30:52.320Z,87.57
2023-04-20T01:31:52.420Z,87.47
2023-04-20T01:32:52.349Z,86.96
2023-04-20T01:33:52.352Z,86.79
2023-04-20T01:34:52.322Z,87.20
2023-04-20T01:35:52.280Z,86.89
2023-04-20T01:36:53.141Z,87.10
2023-04-20T01:37:52.267Z,88.03
2023-04-20T01:38:52.267Z,88.76
2023-04-20T01:39:52.412Z,88.86
2023-04-20T01:40:52.243Z,87.93
2023-04-20T01:41:52.242Z,88.96
2023-04-20T01:42:53.218Z,88.90
2023-04-20T01:43:52.225Z,89.48
2023-04-20T01:44:52.207Z,89.07
2023-04-20T01:45:52.226Z,88.96
2023-04-20T01:46:52.248Z,89.62
2023-04-20T01:47:52.223Z,89.28
2023-04-20T01:48:52.188Z,89.52
2023-04-20T01:49:52.178Z,89.73
2023-04-20T01:50:52.172Z,90.25
2023-04-20T01:51:52.172Z,90.45
2023-04-20T01:52:52.156Z,90.35
2023-04-20T01:53:52.150Z,90.83
2023-04-20T01:54:52.133Z,91.18
2023-04-20T01:55:52.136Z,91.18
2023-04-20T01:56:52.117Z,90.31
2023-04-20T01:57:52.119Z,90.25
2023-04-20T01:58:52.098Z,90.25
2023-04-20T01:59:52.096Z,90.97
2023-04-20T02:00:52.801Z,91.39
2023-04-20T02:01:52.117Z,91.60
2023-04-20T02:02:52.224Z,91.91
2023-04-20T02:03:52.261Z,91.60
2023-04-20T02:04:52.055Z,91.80
2023-04-20T02:05:52.062Z,92.43
2023-04-20T02:06:52.067Z,91.49
2023-04-20T02:07:52.034Z,91.28
2023-04-20T02:08:52.039Z,91.60
2023-04-20T02:09:52.007Z,91.39
2023-04-20T02:10:53.012Z,90.97
2023-04-20T02:11:52.009Z,91.12
2023-04-20T02:12:52.000Z,91.12
2023-04-20T02:13:52.003Z,92.47
2023-04-20T02:14:51.973Z,92.16
2023-04-20T02:15:51.967Z,92.47
2023-04-20T02:16:51.999Z,91.95
2023-04-20T02:17:52.145Z,92.68
2023-04-20T02:18:51.946Z,92.32
2023-04-20T02:19:51.931Z,91.53
2023-04-20T02:20:51.930Z,92.26
2023-04-20T02:21:51.927Z,92.05
2023-04-20T02:22:51.938Z,92.43
2023-04-20T02:23:51.909Z,91.64
2023-04-20T02:24:51.904Z,91.95
2023-04-20T02:25:51.893Z,92.26
2023-04-20T02:26:51.900Z,92.47
2023-04-20T02:27:51.861Z,92.41
2023-04-20T02:28:51.865Z,92.57
2023-04-20T02:29:51.852Z,92.72
2023-04-20T02:30:51.860Z,93.19
2023-04-20T02:31:51.856Z,92.78
2023-04-20T02:32:52.783Z,92.47
2023-04-20T02:33:51.826Z,92.10
2023-04-20T02:34:51.811Z,93.13
2023-04-20T02:35:51.821Z,92.61
2023-04-20T02:36:51.823Z,93.33
2023-04-20T02:37:51.794Z,93.23
2023-04-20T02:38:51.789Z,93.13
2023-04-20T02:39:51.772Z,93.18
2023-04-20T02:40:51.760Z,92.93
2023-04-20T02:41:51.750Z,92.51
2023-04-20T02:42:51.749Z,92.82
2023-04-20T02:43:51.748Z,92.93
2023-04-20T02:44:51.731Z,92.93
2023-04-20T02:45:52.652Z,92.82
2023-04-20T02:46:51.764Z,93.33
2023-04-20T02:47:51.720Z,93.70
2023-04-20T02:48:51.700Z,93.33
2023-04-20T02:49:51.713Z,93.65
2023-04-20T02:50:51.680Z,93.33
2023-04-20T02:51:51.676Z,93.02
2023-04-20T02:52:51.669Z,93.44
2023-04-20T02:53:51.659Z,93.33
2023-04-20T02:54:51.661Z,93.75
2023-04-20T02:55:51.638Z,93.44
2023-04-20T02:56:51.634Z,93.13
2023-04-20T02:57:51.623Z,93.33
2023-04-20T02:58:51.624Z,93.33
2023-04-20T02:59:51.615Z,93.44
2023-04-20T03:00:51.598Z,93.33
2023-04-20T03:01:51.633Z,93.23
2023-04-20T03:02:52.202Z,93.44
2023-04-20T03:03:51.686Z,93.96
2023-04-20T03:04:51.586Z,93.54
2023-04-20T03:05:51.586Z,93.44
2023-04-20T03:06:51.583Z,93.44
2023-04-20T03:07:51.548Z,92.93
2023-04-20T03:08:51.548Z,93.18
2023-04-20T03:09:51.531Z,93.49
2023-04-20T03:10:51.529Z,93.80
2023-04-20T03:11:51.520Z,93.75
2023-04-20T03:12:51.519Z,93.70
2023-04-20T03:13:51.506Z,93.70
2023-04-20T03:14:51.490Z,93.59
2023-04-20T03:15:52.164Z,94.11
2023-04-20T03:16:51.553Z,93.49
2023-04-20T03:17:51.517Z,94.53
2023-04-20T03:18:51.488Z,93.70
2023-04-20T03:19:51.459Z,94.32
2023-04-20T03:20:51.462Z,94.37
2023-04-20T03:21:51.448Z,94.11
2023-04-20T03:22:51.446Z,94.37
2023-04-20T03:23:51.411Z,94.21
2023-04-20T03:24:53.533Z,93.90
2023-04-20T03:25:52.458Z,94.58
2023-04-20T03:26:51.400Z,94.06
2023-04-20T03:27:51.395Z,94.48
2023-04-20T03:28:51.378Z,94.01
2023-04-20T03:29:51.391Z,94.37
2023-04-20T03:30:51.358Z,94.68
2023-04-20T03:31:51.366Z,94.79
2023-04-20T03:32:51.370Z,93.96
2023-04-20T03:33:52.161Z,94.27
2023-04-20T03:34:51.333Z,94.48
2023-04-20T03:35:51.316Z,95.00
2023-04-20T03:36:51.312Z,94.94
2023-04-20T03:37:51.305Z,95.98
2023-04-20T03:38:51.316Z,95.51
2023-04-20T03:39:51.296Z,94.48
2023-04-20T03:40:51.288Z,94.17
2023-04-20T03:41:51.281Z,93.96
2023-04-20T03:42:51.261Z,94.73
2023-04-20T03:43:51.280Z,93.80
2023-04-20T03:44:51.238Z,94.73
2023-04-20T03:45:51.257Z,95.98
2023-04-20T03:46:51.229Z,95.36
2023-04-20T03:47:51.270Z,95.46
2023-04-20T03:48:51.206Z,95.00
2023-04-20T03:49:51.197Z,94.73
2023-04-20T03:50:51.198Z,94.88
2023-04-20T03:51:51.178Z,95.15
2023-04-20T03:52:51.175Z,95.87
2023-04-20T03:53:51.172Z,95.25
2023-04-20T03:54:51.161Z,95.46
2023-04-20T03:55:51.757Z,95.98
2023-04-20T03:56:51.153Z,95.56
2023-04-20T03:57:51.128Z,95.56
2023-04-20T03:58:52.129Z,95.51
2023-04-20T03:59:51.125Z,94.21
2023-04-20T04:00:51.119Z,94.94
2023-04-20T04:01:51.118Z,94.94
2023-04-20T04:02:51.185Z,95.15
2023-04-20T04:03:51.935Z,95.56
2023-04-20T04:04:51.208Z,95.36
2023-04-20T04:05:51.096Z,94.63
2023-04-20T04:06:51.662Z,95.04
2023-04-20T04:07:51.061Z,94.73
2023-04-20T04:08:51.054Z,95.15
2023-04-20T04:09:51.050Z,95.20
2023-04-20T04:10:51.039Z,95.87
2023-04-20T04:11:51.022Z,94.89
2023-04-20T04:12:52.017Z,95.04
2023-04-20T04:13:51.015Z,94.53
2023-04-20T04:14:51.012Z,94.53
2023-04-20T04:15:51.006Z,95.77
2023-04-20T04:16:51.010Z,95.56
2023-04-20T04:17:51.045Z,96.08
2023-04-20T04:18:50.974Z,95.87
2023-04-20T04:19:50.988Z,95.46
2023-04-20T04:20:50.966Z,95.20
2023-04-20T04:21:50.946Z,95.15
2023-04-20T04:22:50.993Z,95.83
2023-04-20T04:23:50.937Z,94.94
2023-04-20T04:24:51.764Z,95.36
2023-04-20T04:25:50.922Z,94.94
2023-04-20T04:26:50.958Z,95.15
2023-04-20T04:27:50.906Z,95.36
2023-04-20T04:28:50.891Z,95.98
2023-04-20T04:29:50.901Z,94.94
2023-04-20T04:30:50.893Z,94.94
2023-04-20T04:31:50.909Z,94.94
2023-04-20T04:32:50.931Z,95.04
2023-04-20T04:33:50.877Z,95.36
2023-04-20T04:34:50.849Z,95.36
2023-04-20T04:35:50.918Z,95.46
2023-04-20T04:36:50.831Z,95.00
2023-04-20T04:37:50.833Z,94.84
2023-04-20T04:38:50.835Z,94.37
2023-04-20T04:39:50.815Z,95.15
2023-04-20T04:40:50.806Z,94.27
2023-04-20T04:41:50.793Z,93.96
2023-04-20T04:42:50.786Z,93.90
2023-04-20T04:43:50.783Z,94.32
2023-04-20T04:44:50.769Z,94.73
2023-04-20T04:45:50.841Z,94.48
2023-04-20T04:46:50.827Z,93.96
2023-04-20T04:47:50.772Z,94.42
2023-04-20T04:48:50.735Z,94.42
2023-04-20T04:49:50.726Z,94.42
2023-04-20T04:50:50.719Z,95.15
2023-04-20T04:51:50.730Z,94.73
2023-04-20T04:52:50.701Z,94.53
2023-04-20T04:53:50.697Z,94.32
2023-04-20T04:54:50.687Z,94.42
2023-04-20T04:55:50.680Z,93.90
2023-04-20T04:56:50.686Z,94.42
2023-04-20T04:57:50.686Z,94.53
2023-04-20T04:58:50.655Z,94.01
2023-04-20T04:59:50.647Z,94.32
2023-04-20T05:00:50.671Z,94.01
2023-04-20T05:01:50.690Z,94.21
2023-04-20T05:02:50.776Z,93.80
2023-04-20T05:03:50.755Z,94.32
2023-04-20T05:04:50.677Z,94.68
2023-04-20T05:05:50.602Z,93.28
2023-04-20T05:06:50.589Z,94.01
2023-04-20T05:07:50.594Z,94.21
2023-04-20T05:08:50.578Z,93.59
2023-04-20T05:09:50.564Z,93.49
2023-04-20T05:10:50.573Z,94.21
2023-04-20T05:11:50.552Z,93.80
2023-04-20T05:12:50.527Z,93.70
2023-04-20T05:13:51.575Z,93.49
2023-04-20T05:14:50.523Z,94.17
2023-04-20T05:15:51.189Z,93.75
2023-04-20T05:16:50.510Z,93.44
2023-04-20T05:17:50.526Z,93.96
2023-04-20T05:18:50.551Z,92.82
2023-04-20T05:19:50.480Z,93.65
2023-04-20T05:20:50.493Z,93.75
2023-04-20T05:21:51.256Z,92.82
2023-04-20T05:22:50.461Z,93.19
2023-04-20T05:23:50.459Z,93.33
2023-04-20T05:24:50.441Z,92.98
2023-04-20T05:25:50.519Z,92.41
2023-04-20T05:26:50.420Z,92.88
2023-04-20T05:27:50.418Z,92.57
2023-04-20T05:28:50.431Z,92.36
2023-04-20T05:29:50.401Z,92.57
2023-04-20T05:30:50.405Z,92.41
2023-04-20T05:31:50.414Z,92.57
2023-04-20T05:32:51.858Z,92.36
2023-04-20T05:33:51.440Z,91.85
2023-04-20T05:34:50.373Z,92.36
2023-04-20T05:35:50.355Z,92.16
2023-04-20T05:36:50.359Z,91.95
2023-04-20T05:37:50.418Z,91.22
2023-04-20T05:38:50.365Z,91.33
2023-04-20T05:39:50.385Z,91.53
2023-04-20T05:40:52.095Z,91.43
2023-04-20T05:41:50.430Z,91.33
2023-04-20T05:42:50.397Z,91.12
2023-04-20T05:43:50.293Z,91.43
2023-04-20T05:44:52.274Z,91.64
2023-04-20T05:45:50.319Z,91.06
2023-04-20T05:46:50.278Z,90.91
2023-04-20T05:47:50.288Z,90.60
2023-04-20T05:48:50.253Z,90.81
2023-04-20T05:49:50.241Z,90.60
2023-04-20T05:50:50.329Z,90.19
2023-04-20T05:51:50.241Z,90.81
2023-04-20T05:52:50.216Z,90.64
2023-04-20T05:53:50.218Z,91.02
2023-04-20T05:54:51.202Z,90.70
2023-04-20T05:55:50.277Z,91.12
2023-04-20T05:56:51.191Z,90.60
2023-04-20T05:57:50.174Z,90.70
2023-04-20T05:58:50.164Z,90.19
2023-04-20T05:59:50.185Z,90.29
2023-04-20T06:00:50.178Z,91.12
2023-04-20T06:01:50.170Z,91.53
2023-04-20T06:02:50.368Z,91.64
2023-04-20T06:03:50.294Z,91.64
2023-04-20T06:04:50.348Z,91.02
2023-04-20T06:05:50.124Z,90.81
2023-04-20T06:06:50.114Z,91.33
2023-04-20T06:07:50.110Z,91.85
2023-04-20T06:08:50.088Z,91.95
2023-04-20T06:09:50.084Z,92.05
2023-04-20T06:10:50.079Z,92.47
2023-04-20T06:11:50.061Z,92.63
2023-04-20T06:12:50.072Z,92.43
2023-04-20T06:13:50.054Z,91.91
2023-04-20T06:14:50.050Z,91.60
2023-04-20T06:15:50.061Z,91.64
2023-04-20T06:16:50.032Z,90.91
2023-04-20T06:17:50.049Z,91.22
2023-04-20T06:18:50.020Z,92.26
2023-04-20T06:19:50.014Z,90.70
2023-04-20T06:20:50.078Z,91.22
2023-04-20T06:21:50.026Z,91.74
2023-04-20T06:22:50.051Z,91.64
2023-04-20T06:23:49.998Z,91.53
2023-04-20T06:24:49.986Z,91.64
2023-04-20T06:25:49.968Z,92.36
2023-04-20T06:26:49.954Z,91.74
2023-04-20T06:27:51.977Z,92.36
2023-04-20T06:28:49.938Z,91.91
2023-04-20T06:29:49.935Z,92.16
2023-04-20T06:30:49.944Z,91.91
2023-04-20T06:31:50.106Z,91.64
2023-04-20T06:32:49.940Z,91.70
2023-04-20T06:33:49.902Z,92.68
2023-04-20T06:34:49.900Z,91.64
2023-04-20T06:35:49.881Z,92.47
2023-04-20T06:36:49.870Z,92.22
2023-04-20T06:37:49.878Z,92.43
2023-04-20T06:38:49.924Z,92.43
2023-04-20T06:39:49.865Z,92.01
2023-04-20T06:40:50.794Z,91.49
2023-04-20T06:41:49.842Z,91.18
2023-04-20T06:42:49.821Z,90.52
2023-04-20T06:43:49.828Z,90.97
2023-04-20T06:44:49.809Z,90.41
2023-04-20T06:45:49.834Z,90.10
2023-04-20T06:46:49.829Z,90.04
2023-04-20T06:47:49.794Z,89.94
2023-04-20T06:48:49.782Z,89.83
2023-04-20T06:49:49.770Z,90.25
2023-04-20T06:50:49.753Z,88.96
2023-04-20T06:51:49.754Z,88.03
2023-04-20T06:52:49.743Z,88.96
2023-04-20T06:53:49.792Z,88.86
2023-04-20T06:54:49.731Z,88.98
2023-04-20T06:55:49.722Z,87.99
2023-04-20T06:56:49.713Z,88.06
2023-04-20T06:57:49.714Z,87.85
2023-04-20T06:58:49.713Z,86.91
2023-04-20T06:59:49.684Z,86.67
2023-04-20T07:00:49.680Z,86.67
2023-04-20T07:01:49.733Z,87.35
2023-04-20T07:02:49.761Z,86.94
2023-04-20T07:03:49.794Z,85.76
2023-04-20T07:04:49.672Z,85.31
2023-04-20T07:05:49.655Z,84.89
2023-04-20T07:06:51.706Z,85.00
2023-04-20T07:07:49.628Z,83.62
2023-04-20T07:08:49.617Z,83.31
2023-04-20T07:09:49.617Z,82.86
2023-04-20T07:10:49.635Z,82.69
2023-04-20T07:11:49.601Z,82.75
2023-04-20T07:12:49.577Z,82.03
2023-04-20T07:13:49.597Z,82.28
2023-04-20T07:14:49.583Z,82.38
2023-04-20T07:15:49.592Z,82.62
2023-04-20T07:16:49.634Z,82.42
2023-04-20T07:18:59.179Z,83.86
2023-04-20T07:19:59.184Z,84.17
2023-04-20T07:20:59.171Z,84.13
2023-04-20T07:22:00.268Z,83.72
2023-04-20T07:23:00.275Z,82.89
2023-04-20T07:24:01.047Z,82.79
2023-04-20T07:25:00.285Z,82.28
2023-04-20T07:26:00.252Z,83.45
2023-04-20T07:27:00.225Z,83.55
2023-04-20T07:28:00.217Z,84.89
2023-04-20T07:29:00.215Z,84.89
2023-04-20T07:30:00.210Z,84.52
2023-04-20T07:31:00.252Z,84.83
2023-04-20T07:32:00.250Z,85.04
2023-04-20T07:33:00.191Z,84.83
2023-04-20T07:34:00.155Z,85.66
2023-04-20T07:35:00.150Z,85.04
2023-04-20T07:36:00.184Z,85.55
2023-04-20T07:37:00.148Z,86.79
2023-04-20T07:38:00.128Z,85.66
2023-04-20T07:39:00.153Z,85.72
2023-04-20T07:40:00.176Z,85.45
2023-04-20T07:41:00.123Z,85.31
2023-04-20T07:42:00.314Z,86.86
2023-04-20T07:43:00.104Z,83.76
2023-04-20T07:44:00.109Z,83.65
2023-04-20T07:45:00.076Z,82.73
2023-04-20T07:46:00.099Z,82.83
2023-04-20T07:47:00.909Z,82.93
2023-04-20T07:48:00.126Z,83.25
2023-04-20T07:49:00.059Z,82.62
2023-04-20T07:50:00.060Z,82.42
2023-04-20T07:51:00.025Z,83.45
2023-04-20T07:52:09.294Z,82.00
2023-04-20T07:53:02.008Z,81.66
2023-04-20T07:53:59.997Z,82.17
2023-04-20T07:54:59.996Z,81.24
2023-04-20T07:56:00.003Z,81.04
2023-04-20T07:56:59.991Z,81.72
2023-04-20T07:58:00.016Z,82.10
2023-04-20T07:58:59.984Z,80.86
2023-04-20T08:00:00.025Z,82.20
2023-04-20T08:00:59.956Z,80.93
2023-04-20T08:01:59.995Z,80.27
2023-04-20T08:03:00.071Z,79.38
2023-04-20T08:04:00.184Z,79.38
2023-04-20T08:04:59.990Z,78.86
2023-04-20T08:05:59.942Z,79.69
2023-04-20T08:06:59.889Z,79.38
2023-04-20T08:07:59.897Z,79.38
2023-04-20T08:08:59.874Z,80.55
2023-04-20T08:09:59.867Z,80.76
2023-04-20T08:10:59.863Z,80.48
2023-04-20T08:11:59.885Z,81.10
2023-04-20T08:12:59.843Z,81.37
2023-04-20T08:14:00.347Z,81.58
2023-04-20T08:14:59.843Z,81.44
2023-04-20T08:15:59.855Z,79.38
2023-04-20T08:16:59.814Z,78.55
2023-04-20T08:17:59.878Z,79.79
2023-04-20T08:18:59.788Z,79.24
2023-04-20T08:19:59.788Z,79.55
2023-04-20T08:20:59.783Z,79.41
2023-04-20T08:22:01.328Z,78.89
2023-04-20T08:22:59.760Z,77.14
2023-04-20T08:23:59.801Z,77.80
2023-04-20T08:24:59.762Z,78.79
2023-04-20T08:25:59.732Z,79.41
2023-04-20T08:26:59.744Z,78.79
2023-04-20T08:27:59.729Z,78.58
2023-04-20T08:29:00.583Z,78.48
2023-04-20T08:29:59.893Z,77.76
2023-04-20T08:30:59.771Z,77.62
2023-04-20T08:32:00.702Z,77.11
2023-04-20T08:32:59.704Z,75.59
2023-04-20T08:33:59.681Z,75.90
2023-04-20T08:34:59.667Z,75.87
2023-04-20T08:35:59.663Z,74.98
2023-04-20T08:36:59.656Z,73.81
2023-04-20T08:37:59.661Z,74.84
2023-04-20T08:38:59.630Z,74.70
2023-04-20T08:39:59.661Z,72.61
2023-04-20T08:40:59.703Z,71.76
2023-04-20T08:41:59.613Z,71.48
2023-04-20T08:42:59.611Z,70.87
2023-04-20T08:43:59.609Z,71.08
2023-04-20T08:44:59.592Z,70.12
2023-04-20T08:45:59.963Z,70.32
2023-04-20T08:46:59.977Z,69.84
2023-04-20T08:47:59.575Z,70.70
2023-04-20T08:48:59.578Z,71.21
2023-04-20T08:49:59.538Z,70.80
2023-04-20T08:50:59.541Z,70.50
2023-04-20T08:51:59.582Z,71.14
2023-04-20T08:52:59.520Z,71.35
2023-04-20T08:53:59.550Z,71.76
2023-04-20T08:54:59.499Z,71.28
2023-04-20T08:55:59.501Z,70.94
2023-04-20T08:56:59.499Z,71.86
2023-04-20T08:57:59.494Z,72.89
2023-04-20T08:59:00.465Z,72.78
2023-04-20T08:59:59.477Z,73.71
2023-04-20T09:00:59.467Z,72.13
2023-04-20T09:01:59.653Z,72.06
2023-04-20T09:02:59.562Z,71.96
2023-04-20T09:03:59.553Z,71.62
2023-04-20T09:04:59.569Z,71.34
2023-04-20T09:06:00.060Z,71.83
2023-04-20T09:06:59.406Z,71.72
2023-04-20T09:07:59.411Z,71.66
2023-04-20T09:08:59.397Z,71.75
2023-04-20T09:09:59.384Z,72.78
2023-04-20T09:10:59.366Z,71.96
2023-04-20T09:11:59.413Z,71.96
2023-04-20T09:12:59.351Z,71.31
2023-04-20T09:13:59.347Z,70.83
2023-04-20T09:14:59.341Z,71.14
2023-04-20T09:15:59.386Z,71.24
2023-04-20T09:16:59.354Z,70.94
2023-04-20T09:17:59.391Z,70.42
2023-04-20T09:18:59.312Z,70.83
2023-04-20T09:19:59.298Z,70.59
2023-04-20T09:20:59.298Z,70.28
2023-04-20T09:21:59.296Z,69.67
2023-04-20T09:22:59.283Z,67.95
2023-04-20T09:23:59.285Z,68.26
2023-04-20T09:24:59.265Z,68.95
2023-04-20T09:25:59.248Z,67.71
2023-04-20T09:26:59.240Z,67.17
2023-04-20T09:27:59.274Z,67.99
2023-04-20T09:28:59.223Z,66.52
2023-04-20T09:29:59.216Z,66.22
2023-04-20T09:30:59.206Z,66.52
2023-04-20T09:31:59.218Z,66.08
2023-04-20T09:32:59.240Z,66.39
2023-04-20T09:33:59.203Z,66.28
2023-04-20T09:34:59.191Z,66.31
2023-04-20T09:35:59.197Z,66.93
2023-04-20T09:36:59.154Z,67.55
2023-04-20T09:37:59.165Z,67.21
2023-04-20T09:38:59.155Z,66.28
2023-04-20T09:39:59.125Z,67.86
2023-04-20T09:41:00.140Z,67.48
2023-04-20T09:41:59.146Z,68.13
2023-04-20T09:42:59.117Z,69.29
2023-04-20T09:43:59.127Z,69.80
2023-04-20T09:44:59.151Z,71.55
2023-04-20T09:45:59.106Z,70.52
2023-04-20T09:46:59.095Z,70.83
2023-04-20T09:47:59.138Z,70.52
2023-04-20T09:48:59.067Z,69.87
2023-04-20T09:50:04.480Z,68.81
2023-04-20T09:51:00.053Z,69.19
2023-04-20T09:51:59.051Z,67.35
2023-04-20T09:52:59.044Z,66.22
2023-04-20T09:53:59.035Z,67.52
2023-04-20T09:54:59.021Z,66.08
2023-04-20T09:55:59.012Z,66.05
2023-04-20T09:56:59.016Z,65.61
2023-04-20T09:57:59.049Z,64.89
2023-04-20T09:58:58.992Z,65.41
2023-04-20T09:59:58.998Z,64.48
2023-04-20T10:00:59.010Z,63.76
2023-04-20T10:01:59.021Z,63.87
2023-04-20T10:02:59.193Z,64.31
2023-04-20T10:03:59.282Z,65.67
2023-04-20T10:04:58.959Z,65.44
2023-04-20T10:05:59.058Z,66.12
2023-04-20T10:06:58.950Z,65.61
2023-04-20T10:07:58.915Z,65.41
2023-04-20T10:08:59.666Z,66.36
2023-04-20T10:09:58.904Z,66.02
2023-04-20T10:10:58.890Z,65.58
2023-04-20T10:11:59.654Z,64.97
2023-04-20T10:13:00.676Z,65.58
2023-04-20T10:13:58.891Z,65.92
2023-04-20T10:14:58.856Z,66.05
2023-04-20T10:15:58.848Z,65.74
2023-04-20T10:16:58.896Z,65.54
2023-04-20T10:17:58.958Z,65.03
2023-04-20T10:18:59.663Z,65.47
2023-04-20T10:19:58.825Z,66.28
2023-04-20T10:20:58.815Z,66.39
2023-04-20T10:21:58.863Z,66.08
2023-04-20T10:22:58.798Z,66.08
2023-04-20T10:23:58.800Z,65.77
2023-04-20T10:24:58.792Z,65.77
2023-04-20T10:25:58.775Z,66.28
2023-04-20T10:26:58.796Z,65.77
2023-04-20T10:27:58.762Z,64.61
2023-04-20T10:28:58.752Z,64.82
2023-04-20T10:29:58.749Z,64.59
2023-04-20T10:30:58.763Z,63.66
2023-04-20T10:31:58.748Z,63.32
2023-04-20T10:32:58.824Z,63.84
2023-04-20T10:33:58.717Z,63.81
2023-04-20T10:34:58.711Z,64.12
2023-04-20T10:35:58.720Z,63.50
2023-04-20T10:36:58.692Z,63.12
2023-04-20T10:37:58.722Z,63.22
2023-04-20T10:38:58.694Z,64.04
2023-04-20T10:39:58.717Z,63.02
2023-04-20T10:40:58.682Z,62.10
2023-04-20T10:41:59.670Z,62.92
2023-04-20T10:42:58.810Z,63.22
2023-04-20T10:43:58.639Z,62.81
2023-04-20T10:44:58.638Z,62.95
2023-04-20T10:45:58.636Z,63.28
2023-04-20T10:46:58.612Z,65.12
2023-04-20T10:47:58.686Z,64.61
2023-04-20T10:48:58.604Z,65.74
2023-04-20T10:49:58.584Z,64.79
2023-04-20T10:50:58.584Z,64.25
2023-04-20T10:51:58.571Z,63.73
2023-04-20T10:52:58.606Z,63.50
2023-04-20T10:53:58.681Z,62.27
2023-04-20T10:54:58.556Z,63.32
2023-04-20T10:55:58.534Z,64.56
2023-04-20T10:56:58.562Z,66.27
2023-04-20T10:57:58.520Z,67.87
2023-04-20T10:58:59.921Z,66.16
2023-04-20T10:59:58.518Z,65.62
2023-04-20T11:00:58.523Z,64.29
2023-04-20T11:01:58.590Z,62.35
2023-04-20T11:02:58.600Z,62.35
2023-04-20T11:03:58.548Z,60.88
2023-04-20T11:04:58.548Z,60.37
2023-04-20T11:05:58.498Z,60.96
2023-04-20T11:06:58.465Z,59.70
2023-04-20T11:07:58.468Z,60.24
2023-04-20T11:08:58.449Z,60.24
2023-04-20T11:09:58.479Z,61.26
2023-04-20T11:10:58.429Z,61.80
2023-04-20T11:11:58.416Z,60.88
2023-04-20T11:12:58.431Z,61.01
2023-04-20T11:13:58.406Z,62.21
2023-04-20T11:14:58.402Z,61.36
2023-04-20T11:15:58.405Z,60.65
2023-04-20T11:16:58.482Z,61.24
2023-04-20T11:17:58.411Z,60.62
2023-04-20T11:18:58.383Z,61.47
2023-04-20T11:19:58.376Z,61.75
2023-04-20T11:20:58.380Z,60.62
2023-04-20T11:21:58.343Z,60.62
2023-04-20T11:22:58.338Z,60.85
2023-04-20T11:23:58.327Z,62.18
2023-04-20T11:24:58.328Z,62.29
2023-04-20T11:25:58.315Z,62.93
2023-04-20T11:26:58.305Z,63.95
2023-04-20T11:27:58.293Z,64.54
2023-04-20T11:28:58.291Z,64.67
2023-04-20T11:29:58.315Z,64.39
2023-04-20T11:30:58.332Z,64.90
2023-04-20T11:31:58.390Z,64.80
2023-04-20T11:32:58.345Z,64.29
2023-04-20T11:33:59.178Z,63.24
2023-04-20T11:35:06.099Z,62.11
2023-04-20T11:36:00.695Z,61.91
2023-04-20T11:36:58.219Z,60.99
2023-04-20T11:37:58.208Z,61.50
2023-04-20T11:38:59.185Z,62.01
2023-04-20T11:39:58.212Z,60.65
2023-04-20T11:40:58.202Z,60.31
2023-04-20T11:41:58.199Z,63.51
2023-04-20T11:42:58.180Z,64.47
2023-04-20T11:43:58.175Z,64.36
2023-04-20T11:44:58.160Z,65.52
2023-04-20T11:45:58.190Z,65.45
2023-04-20T11:46:58.232Z,65.83
2023-04-20T11:47:58.233Z,65.31
2023-04-20T11:48:58.131Z,64.77
2023-04-20T11:49:58.141Z,63.21
2023-04-20T11:50:58.108Z,63.10
2023-04-20T11:51:58.141Z,62.26
2023-04-20T11:52:58.725Z,61.51
2023-04-20T11:53:58.091Z,61.41
2023-04-20T11:54:58.083Z,61.65
2023-04-20T11:55:59.687Z,61.65
2023-04-20T11:56:58.147Z,62.98
2023-04-20T11:57:58.081Z,62.33
2023-04-20T11:58:58.052Z,61.90
2023-04-20T11:59:58.033Z,60.80
2023-04-20T12:00:58.047Z,60.49
2023-04-20T12:01:58.174Z,61.44
2023-04-20T12:02:58.213Z,60.58
2023-04-20T12:03:58.190Z,61.01
2023-04-20T12:04:58.033Z,61.93
2023-04-20T12:05:58.058Z,61.29
2023-04-20T12:06:58.005Z,60.88
2023-04-20T12:07:58.020Z,60.52
2023-04-20T12:08:57.976Z,60.62
2023-04-20T12:09:57.953Z,60.08
2023-04-20T12:10:58.699Z,60.46
2023-04-20T12:11:58.955Z,60.26
2023-04-20T12:12:57.936Z,59.82
2023-04-20T12:13:57.995Z,58.80
2023-04-20T12:14:57.925Z,57.86
2023-04-20T12:15:57.960Z,56.96
2023-04-20T12:16:58.646Z,56.79
2023-04-20T12:17:59.026Z,57.09
2023-04-20T12:18:57.950Z,57.57
2023-04-20T12:19:57.919Z,57.88
2023-04-20T12:20:57.883Z,58.32
2023-04-20T12:21:57.885Z,58.70
2023-04-20T12:22:59.059Z,59.11
2023-04-20T12:23:58.889Z,60.36
2023-04-20T12:24:57.842Z,60.05
2023-04-20T12:25:57.851Z,60.46
2023-04-20T12:26:57.831Z,59.44
2023-04-20T12:27:57.821Z,60.16
2023-04-20T12:28:57.803Z,60.69
2023-04-20T12:29:57.800Z,61.77
2023-04-20T12:30:57.812Z,62.62
2023-04-20T12:31:57.845Z,63.85
2023-04-20T12:32:57.807Z,63.24
2023-04-20T12:33:57.763Z,63.72
2023-04-20T12:34:57.775Z,63.41
2023-04-20T12:35:57.765Z,63.62
2023-04-20T12:36:57.750Z,63.82
2023-04-20T12:37:57.781Z,63.21
2023-04-20T12:38:57.742Z,63.44
2023-04-20T12:39:57.715Z,63.47
2023-04-20T12:40:57.705Z,65.14
2023-04-20T12:41:57.754Z,64.53
2023-04-20T12:42:57.695Z,64.22
2023-04-20T12:43:57.686Z,63.84
2023-04-20T12:44:57.688Z,65.75
2023-04-20T12:45:57.719Z,64.86
2023-04-20T12:46:57.711Z,65.89
2023-04-20T12:47:59.774Z,65.27
2023-04-20T12:48:57.655Z,65.86
2023-04-20T12:49:57.634Z,64.53
2023-04-20T12:50:57.658Z,64.12
2023-04-20T12:51:57.642Z,65.11
2023-04-20T12:52:57.630Z,65.65
2023-04-20T12:53:57.611Z,64.01
2023-04-20T12:54:57.620Z,64.94